sensor_id;sensor_type;location;lat;lon;timestamp;pressure;altitude;pressure_sealevel;temperature;humidity
70815;BME280;58428;49.478;10.986;2023-06-04T00:01:35;98512.94;;;13.80;83.84
70815;BME280;58428;49.478;10.986;2023-06-04T00:04:00;98502.78;;;13.77;85.68
70815;BME280;58428;49.478;10.986;2023-06-04T00:06:26;98506.16;;;13.74;85.47
70815;BME280;58428;49.478;10.986;2023-06-04T00:08:51;98509.94;;;13.69;86.68
70815;BME280;58428;49.478;10.986;2023-06-04T00:11:17;98500.44;;;13.63;90.56
70815;BME280;58428;49.478;10.986;2023-06-04T00:13:42;98491.81;;;13.61;93.13
70815;BME280;58428;49.478;10.986;2023-06-04T00:16:08;98494.44;;;13.58;91.92
70815;BME280;58428;49.478;10.986;2023-06-04T00:18:33;98491.59;;;13.55;91.41
70815;BME280;58428;49.478;10.986;2023-06-04T00:20:58;98485.25;;;13.51;90.01
70815;BME280;58428;49.478;10.986;2023-06-04T00:23:24;98494.91;;;13.48;93.08
70815;BME280;58428;49.478;10.986;2023-06-04T00:25:50;98492.97;;;13.49;89.72
70815;BME280;58428;49.478;10.986;2023-06-04T00:28:16;98494.00;;;13.44;90.49
70815;BME280;58428;49.478;10.986;2023-06-04T00:30:41;98492.06;;;13.45;88.80
70815;BME280;58428;49.478;10.986;2023-06-04T00:33:07;98489.16;;;13.38;89.82
70815;BME280;58428;49.478;10.986;2023-06-04T00:35:32;98489.69;;;13.31;89.60
70815;BME280;58428;49.478;10.986;2023-06-04T00:37:58;98496.28;;;13.30;89.90
70815;BME280;58428;49.478;10.986;2023-06-04T00:40:25;98496.50;;;13.25;89.16
70815;BME280;58428;49.478;10.986;2023-06-04T00:42:51;98492.88;;;13.22;89.10
70815;BME280;58428;49.478;10.986;2023-06-04T00:45:17;98491.97;;;13.18;91.00
70815;BME280;58428;49.478;10.986;2023-06-04T00:47:45;98493.13;;;13.17;90.04
70815;BME280;58428;49.478;10.986;2023-06-04T00:50:11;98498.44;;;13.13;91.34
70815;BME280;58428;49.478;10.986;2023-06-04T00:52:36;98489.72;;;13.08;93.88
70815;BME280;58428;49.478;10.986;2023-06-04T00:55:03;98492.69;;;13.03;92.60
70815;BME280;58428;49.478;10.986;2023-06-04T00:57:28;98492.31;;;13.04;95.28
70815;BME280;58428;49.478;10.986;2023-06-04T00:59:54;98501.16;;;13.01;93.80
70815;BME280;58428;49.478;10.986;2023-06-04T01:02:23;98504.78;;;12.93;100.00
70815;BME280;58428;49.478;10.986;2023-06-04T01:07:35;98503.16;;;12.81;98.97
70815;BME280;58428;49.478;10.986;2023-06-04T01:10:01;98507.34;;;12.78;97.69
70815;BME280;58428;49.478;10.986;2023-06-04T01:12:27;98500.13;;;12.82;98.70
70815;BME280;58428;49.478;10.986;2023-06-04T01:14:53;98507.53;;;12.73;100.00
70815;BME280;58428;49.478;10.986;2023-06-04T01:17:26;98512.63;;;12.75;100.00
70815;BME280;58428;49.478;10.986;2023-06-04T01:27:54;98514.75;;;12.57;100.00
70815;BME280;58428;49.478;10.986;2023-06-04T01:30:30;98508.88;;;12.55;100.00
70815;BME280;58428;49.478;10.986;2023-06-04T01:32:57;98511.44;;;12.52;100.00
70815;BME280;58428;49.478;10.986;2023-06-04T01:35:23;98514.84;;;12.49;100.00
70815;BME280;58428;49.478;10.986;2023-06-04T01:37:49;98504.19;;;12.44;100.00
70815;BME280;58428;49.478;10.986;2023-06-04T01:40:15;98506.69;;;12.37;100.00
70815;BME280;58428;49.478;10.986;2023-06-04T01:42:41;98510.84;;;12.35;100.00
70815;BME280;58428;49.478;10.986;2023-06-04T01:45:07;98521.34;;;12.36;100.00
70815;BME280;58428;49.478;10.986;2023-06-04T01:47:33;98517.06;;;12.35;100.00
70815;BME280;58428;49.478;10.986;2023-06-04T01:50:00;98521.34;;;12.36;100.00
70815;BME280;58428;49.478;10.986;2023-06-04T01:52:26;98515.00;;;12.32;100.00
70815;BME280;58428;49.478;10.986;2023-06-04T01:54:52;98515.00;;;12.32;100.00
70815;BME280;58428;49.478;10.986;2023-06-04T01:57:18;98518.94;;;12.23;100.00
70815;BME280;58428;49.478;10.986;2023-06-04T01:59:47;98530.78;;;12.18;100.00
70815;BME280;58428;49.478;10.986;2023-06-04T02:02:13;98526.84;;;12.16;100.00
70815;BME280;58428;49.478;10.986;2023-06-04T02:04:39;98528.75;;;12.15;100.00
70815;BME280;58428;49.478;10.986;2023-06-04T02:07:08;98525.59;;;12.13;100.00
70815;BME280;58428;49.478;10.986;2023-06-04T02:09:33;98535.28;;;12.14;100.00
70815;BME280;58428;49.478;10.986;2023-06-04T02:12:00;98525.00;;;12.08;100.00
70815;BME280;58428;49.478;10.986;2023-06-04T02:14:25;98531.84;;;12.06;100.00
70815;BME280;58428;49.478;10.986;2023-06-04T02:16:51;98527.31;;;11.98;100.00
70815;BME280;58428;49.478;10.986;2023-06-04T02:19:16;98538.16;;;11.98;100.00
70815;BME280;58428;49.478;10.986;2023-06-04T02:21:44;98539.28;;;11.97;100.00
70815;BME280;58428;49.478;10.986;2023-06-04T02:24:10;98532.63;;;11.94;100.00
70815;BME280;58428;49.478;10.986;2023-06-04T02:26:35;98539.38;;;11.88;100.00
70815;BME280;58428;49.478;10.986;2023-06-04T02:29:00;98532.34;;;11.87;100.00
70815;BME280;58428;49.478;10.986;2023-06-04T02:31:26;98537.84;;;11.79;100.00
70815;BME280;58428;49.478;10.986;2023-06-04T02:33:51;98534.91;;;11.84;100.00
70815;BME280;58428;49.478;10.986;2023-06-04T02:36:17;98539.72;;;11.78;100.00
70815;BME280;58428;49.478;10.986;2023-06-04T02:38:43;98532.59;;;11.74;100.00
70815;BME280;58428;49.478;10.986;2023-06-04T02:41:08;98530.44;;;11.68;100.00
70815;BME280;58428;49.478;10.986;2023-06-04T02:43:34;98533.91;;;11.68;100.00
70815;BME280;58428;49.478;10.986;2023-06-04T02:46:00;98532.34;;;11.67;100.00
70815;BME280;58428;49.478;10.986;2023-06-04T02:48:25;98532.38;;;11.59;100.00
70815;BME280;58428;49.478;10.986;2023-06-04T02:50:50;98530.28;;;11.44;100.00
70815;BME280;58428;49.478;10.986;2023-06-04T02:53:16;98532.81;;;11.40;100.00
70815;BME280;58428;49.478;10.986;2023-06-04T02:55:41;98528.03;;;11.38;100.00
70815;BME280;58428;49.478;10.986;2023-06-04T02:58:07;98537.63;;;11.35;100.00
70815;BME280;58428;49.478;10.986;2023-06-04T03:00:33;98537.47;;;11.32;100.00
70815;BME280;58428;49.478;10.986;2023-06-04T03:02:59;98546.25;;;11.29;100.00
70815;BME280;58428;49.478;10.986;2023-06-04T03:05:27;98542.28;;;11.26;100.00
70815;BME280;58428;49.478;10.986;2023-06-04T03:07:53;98538.59;;;11.31;100.00
70815;BME280;58428;49.478;10.986;2023-06-04T03:10:18;98546.72;;;11.31;100.00
70815;BME280;58428;49.478;10.986;2023-06-04T03:12:44;98541.09;;;11.36;100.00
70815;BME280;58428;49.478;10.986;2023-06-04T03:15:10;98550.69;;;11.33;100.00
70815;BME280;58428;49.478;10.986;2023-06-04T03:17:36;98552.78;;;11.28;100.00
70815;BME280;58428;49.478;10.986;2023-06-04T03:20:02;98552.31;;;11.26;100.00
70815;BME280;58428;49.478;10.986;2023-06-04T03:22:29;98551.69;;;11.20;100.00
70815;BME280;58428;49.478;10.986;2023-06-04T03:24:55;98548.88;;;11.17;100.00
70815;BME280;58428;49.478;10.986;2023-06-04T03:27:20;98549.84;;;11.12;100.00
70815;BME280;58428;49.478;10.986;2023-06-04T03:29:46;98552.38;;;11.17;100.00
70815;BME280;58428;49.478;10.986;2023-06-04T03:32:11;98556.69;;;11.10;100.00
70815;BME280;58428;49.478;10.986;2023-06-04T03:34:38;98562.59;;;11.12;100.00
70815;BME280;58428;49.478;10.986;2023-06-04T03:37:03;98558.56;;;11.18;100.00
70815;BME280;58428;49.478;10.986;2023-06-04T03:39:29;98554.75;;;11.19;100.00
70815;BME280;58428;49.478;10.986;2023-06-04T03:41:54;98558.88;;;11.16;100.00
70815;BME280;58428;49.478;10.986;2023-06-04T03:44:21;98560.41;;;11.05;100.00
70815;BME280;58428;49.478;10.986;2023-06-04T03:46:46;98558.31;;;11.02;100.00
70815;BME280;58428;49.478;10.986;2023-06-04T03:49:13;98564.50;;;11.11;100.00
70815;BME280;58428;49.478;10.986;2023-06-04T03:51:41;98572.47;;;11.08;100.00
70815;BME280;58428;49.478;10.986;2023-06-04T03:54:06;98564.88;;;11.02;100.00
70815;BME280;58428;49.478;10.986;2023-06-04T03:56:32;98572.19;;;11.01;100.00
70815;BME280;58428;49.478;10.986;2023-06-04T03:58:58;98570.44;;;10.97;100.00
70815;BME280;58428;49.478;10.986;2023-06-04T04:01:23;98572.19;;;11.01;100.00
70815;BME280;58428;49.478;10.986;2023-06-04T04:03:50;98564.72;;;10.98;100.00
70815;BME280;58428;49.478;10.986;2023-06-04T04:06:16;98563.78;;;10.94;100.00
70815;BME280;58428;49.478;10.986;2023-06-04T04:08:42;98571.72;;;10.99;100.00
70815;BME280;58428;49.478;10.986;2023-06-04T04:11:18;98573.13;;;11.05;100.00
70815;BME280;58428;49.478;10.986;2023-06-04T04:13:46;98577.44;;;11.06;100.00
70815;BME280;58428;49.478;10.986;2023-06-04T04:16:12;98573.00;;;11.02;100.00
70815;BME280;58428;49.478;10.986;2023-06-04T04:18:38;98564.25;;;10.96;100.00
70815;BME280;58428;49.478;10.986;2023-06-04T04:21:04;98565.97;;;11.01;100.00
70815;BME280;58428;49.478;10.986;2023-06-04T04:23:30;98568.16;;;11.07;100.00
70815;BME280;58428;49.478;10.986;2023-06-04T04:25:58;98584.72;;;11.14;100.00
70815;BME280;58428;49.478;10.986;2023-06-04T04:28:24;98571.66;;;11.16;100.00
70815;BME280;58428;49.478;10.986;2023-06-04T04:30:54;98568.09;;;11.24;100.00
70815;BME280;58428;49.478;10.986;2023-06-04T04:33:21;98566.78;;;11.30;100.00
70815;BME280;58428;49.478;10.986;2023-06-04T04:35:50;98570.91;;;11.36;100.00
70815;BME280;58428;49.478;10.986;2023-06-04T04:38:15;98575.59;;;11.55;100.00
70815;BME280;58428;49.478;10.986;2023-06-04T04:40:42;98579.44;;;11.83;100.00
70815;BME280;58428;49.478;10.986;2023-06-04T04:43:07;98582.88;;;12.12;100.00
70815;BME280;58428;49.478;10.986;2023-06-04T04:45:33;98579.59;;;12.39;100.00
70815;BME280;58428;49.478;10.986;2023-06-04T04:47:58;98581.13;;;12.60;100.00
70815;BME280;58428;49.478;10.986;2023-06-04T04:50:24;98581.19;;;12.72;100.00
70815;BME280;58428;49.478;10.986;2023-06-04T04:52:49;98579.56;;;12.91;100.00
70815;BME280;58428;49.478;10.986;2023-06-04T04:55:15;98579.69;;;12.94;100.00
70815;BME280;58428;49.478;10.986;2023-06-04T04:57:40;98581.59;;;12.94;100.00
70815;BME280;58428;49.478;10.986;2023-06-04T05:00:06;98579.22;;;12.92;100.00
70815;BME280;58428;49.478;10.986;2023-06-04T05:02:34;98587.72;;;12.91;100.00
70815;BME280;58428;49.478;10.986;2023-06-04T05:05:00;98582.03;;;12.84;100.00
70815;BME280;58428;49.478;10.986;2023-06-04T05:07:26;98581.75;;;12.77;100.00
70815;BME280;58428;49.478;10.986;2023-06-04T05:09:51;98593.56;;;12.81;100.00
70815;BME280;58428;49.478;10.986;2023-06-04T05:12:17;98591.88;;;12.88;100.00
70815;BME280;58428;49.478;10.986;2023-06-04T05:14:42;98594.28;;;13.02;100.00
70815;BME280;58428;49.478;10.986;2023-06-04T05:17:08;98597.03;;;13.14;100.00
70815;BME280;58428;49.478;10.986;2023-06-04T05:19:34;98598.28;;;13.16;100.00
70815;BME280;58428;49.478;10.986;2023-06-04T05:22:00;98600.88;;;13.13;100.00
70815;BME280;58428;49.478;10.986;2023-06-04T05:24:28;98601.00;;;13.16;100.00
70815;BME280;58428;49.478;10.986;2023-06-04T05:26:54;98604.72;;;13.12;100.00
70815;BME280;58428;49.478;10.986;2023-06-04T05:29:22;98607.75;;;13.10;100.00
70815;BME280;58428;49.478;10.986;2023-06-04T05:31:47;98606.00;;;13.26;100.00
70815;BME280;58428;49.478;10.986;2023-06-04T05:34:12;98607.00;;;13.33;100.00
70815;BME280;58428;49.478;10.986;2023-06-04T05:36:41;98602.72;;;13.32;100.00
70815;BME280;58428;49.478;10.986;2023-06-04T05:39:07;98611.00;;;13.36;100.00
70815;BME280;58428;49.478;10.986;2023-06-04T05:41:34;98608.41;;;13.51;100.00
70815;BME280;58428;49.478;10.986;2023-06-04T05:44:01;98616.41;;;13.71;100.00
70815;BME280;58428;49.478;10.986;2023-06-04T05:46:26;98616.97;;;13.89;100.00
70815;BME280;58428;49.478;10.986;2023-06-04T05:48:52;98616.06;;;13.97;100.00
70815;BME280;58428;49.478;10.986;2023-06-04T05:51:17;98615.94;;;14.05;100.00
70815;BME280;58428;49.478;10.986;2023-06-04T05:53:43;98615.03;;;14.25;99.57
70815;BME280;58428;49.478;10.986;2023-06-04T05:56:08;98616.09;;;14.35;99.34
70815;BME280;58428;49.478;10.986;2023-06-04T05:58:33;98614.38;;;14.43;93.68
70815;BME280;58428;49.478;10.986;2023-06-04T06:00:59;98610.72;;;14.51;96.44
70815;BME280;58428;49.478;10.986;2023-06-04T06:03:25;98613.06;;;14.64;95.25
70815;BME280;58428;49.478;10.986;2023-06-04T06:05:52;98610.63;;;14.74;99.64
70815;BME280;58428;49.478;10.986;2023-06-04T06:08:19;98610.22;;;14.88;100.00
70815;BME280;58428;49.478;10.986;2023-06-04T06:10:45;98616.53;;;14.92;98.00
70815;BME280;58428;49.478;10.986;2023-06-04T06:13:10;98609.91;;;15.05;98.59
70815;BME280;58428;49.478;10.986;2023-06-04T06:15:35;98620.91;;;15.08;97.89
70815;BME280;58428;49.478;10.986;2023-06-04T06:18:01;98618.38;;;15.15;97.62
70815;BME280;58428;49.478;10.986;2023-06-04T06:20:26;98615.06;;;15.21;98.69
70815;BME280;58428;49.478;10.986;2023-06-04T06:22:52;98615.75;;;15.34;98.14
70815;BME280;58428;49.478;10.986;2023-06-04T06:25:17;98615.91;;;15.41;96.16
70815;BME280;58428;49.478;10.986;2023-06-04T06:27:44;98621.31;;;15.52;94.37
70815;BME280;58428;49.478;10.986;2023-06-04T06:30:10;98618.09;;;15.66;95.06
70815;BME280;58428;49.478;10.986;2023-06-04T06:32:35;98618.03;;;15.78;92.46
70815;BME280;58428;49.478;10.986;2023-06-04T06:35:01;98619.94;;;15.92;94.44
70815;BME280;58428;49.478;10.986;2023-06-04T06:37:26;98624.03;;;16.02;90.92
70815;BME280;58428;49.478;10.986;2023-06-04T06:39:52;98617.94;;;16.08;92.20
70815;BME280;58428;49.478;10.986;2023-06-04T06:42:17;98624.13;;;16.21;90.22
70815;BME280;58428;49.478;10.986;2023-06-04T06:44:46;98623.91;;;16.29;91.36
70815;BME280;58428;49.478;10.986;2023-06-04T06:47:12;98627.69;;;16.40;92.21
70815;BME280;58428;49.478;10.986;2023-06-04T06:49:41;98627.47;;;16.48;90.15
70815;BME280;58428;49.478;10.986;2023-06-04T06:52:07;98626.09;;;16.58;91.11
70815;BME280;58428;49.478;10.986;2023-06-04T06:54:32;98628.59;;;16.66;88.99
70815;BME280;58428;49.478;10.986;2023-06-04T06:56:58;98624.50;;;16.75;90.40
70815;BME280;58428;49.478;10.986;2023-06-04T06:59:24;98632.19;;;16.89;89.49
70815;BME280;58428;49.478;10.986;2023-06-04T07:01:50;98625.72;;;16.96;88.53
70815;BME280;58428;49.478;10.986;2023-06-04T07:04:16;98631.03;;;16.90;87.83
70815;BME280;58428;49.478;10.986;2023-06-04T07:06:42;98626.72;;;16.89;88.57
70815;BME280;58428;49.478;10.986;2023-06-04T07:09:07;98626.88;;;16.95;88.00
70815;BME280;58428;49.478;10.986;2023-06-04T07:11:33;98622.25;;;17.18;88.87
70815;BME280;58428;49.478;10.986;2023-06-04T07:13:58;98622.16;;;17.33;87.50
70815;BME280;58428;49.478;10.986;2023-06-04T07:16:24;98625.63;;;17.53;86.68
70815;BME280;58428;49.478;10.986;2023-06-04T07:18:49;98629.63;;;17.59;83.84
70815;BME280;58428;49.478;10.986;2023-06-04T07:21:16;98633.41;;;17.73;85.38
70815;BME280;58428;49.478;10.986;2023-06-04T07:23:41;98627.66;;;17.81;84.24
70815;BME280;58428;49.478;10.986;2023-06-04T07:26:06;98625.81;;;17.89;83.17
70815;BME280;58428;49.478;10.986;2023-06-04T07:28:32;98628.41;;;18.04;84.66
70815;BME280;58428;49.478;10.986;2023-06-04T07:30:58;98629.00;;;18.16;84.52
70815;BME280;58428;49.478;10.986;2023-06-04T07:33:24;98623.16;;;18.18;83.68
70815;BME280;58428;49.478;10.986;2023-06-04T07:35:50;98620.25;;;18.33;83.44
70815;BME280;58428;49.478;10.986;2023-06-04T07:38:15;98626.66;;;18.44;83.09
70815;BME280;58428;49.478;10.986;2023-06-04T07:40:41;98623.59;;;18.49;82.20
70815;BME280;58428;49.478;10.986;2023-06-04T07:43:07;98614.50;;;18.42;82.17
70815;BME280;58428;49.478;10.986;2023-06-04T07:45:32;98612.69;;;18.52;82.48
70815;BME280;58428;49.478;10.986;2023-06-04T07:47:57;98614.44;;;18.67;82.24
70815;BME280;58428;49.478;10.986;2023-06-04T07:50:24;98611.06;;;18.80;82.48
70815;BME280;58428;49.478;10.986;2023-06-04T07:52:49;98607.66;;;18.90;82.43
70815;BME280;58428;49.478;10.986;2023-06-04T07:55:15;98609.06;;;19.07;82.42
70815;BME280;58428;49.478;10.986;2023-06-04T07:57:40;98613.09;;;19.19;80.27
70815;BME280;58428;49.478;10.986;2023-06-04T08:00:07;98610.72;;;19.15;77.93
70815;BME280;58428;49.478;10.986;2023-06-04T08:02:33;98611.41;;;19.05;77.12
70815;BME280;58428;49.478;10.986;2023-06-04T08:05:00;98610.41;;;19.23;78.96
70815;BME280;58428;49.478;10.986;2023-06-04T08:07:29;98609.34;;;19.34;77.97
70815;BME280;58428;49.478;10.986;2023-06-04T08:09:55;98605.97;;;19.51;77.66
70815;BME280;58428;49.478;10.986;2023-06-04T08:12:22;98605.66;;;19.59;76.29
70815;BME280;58428;49.478;10.986;2023-06-04T08:14:47;98603.34;;;19.68;74.62
70815;BME280;58428;49.478;10.986;2023-06-04T08:17:13;98603.06;;;19.77;74.19
70815;BME280;58428;49.478;10.986;2023-06-04T08:19:38;98602.78;;;19.89;75.05
70815;BME280;58428;49.478;10.986;2023-06-04T08:22:04;98602.78;;;19.89;71.23
70815;BME280;58428;49.478;10.986;2023-06-04T08:24:31;98603.63;;;19.96;71.41
70815;BME280;58428;49.478;10.986;2023-06-04T08:26:57;98600.19;;;20.09;73.26
70815;BME280;58428;49.478;10.986;2023-06-04T08:31:48;98601.88;;;20.31;71.99
70815;BME280;58428;49.478;10.986;2023-06-04T08:34:14;98600.34;;;20.37;70.23
70815;BME280;58428;49.478;10.986;2023-06-04T08:36:40;98601.50;;;20.36;69.35
70815;BME280;58428;49.478;10.986;2023-06-04T08:39:07;98601.50;;;20.36;69.06
70815;BME280;58428;49.478;10.986;2023-06-04T08:43:58;98602.34;;;20.43;68.81
70815;BME280;58428;49.478;10.986;2023-06-04T08:46:28;98602.03;;;20.59;68.03
70815;BME280;58428;49.478;10.986;2023-06-04T08:48:56;98594.66;;;20.73;68.57
70815;BME280;58428;49.478;10.986;2023-06-04T08:51:26;98597.06;;;20.88;66.50
70815;BME280;58428;49.478;10.986;2023-06-04T08:53:52;98595.91;;;20.93;66.16
70815;BME280;58428;49.478;10.986;2023-06-04T08:56:20;98604.59;;;21.08;68.11
70815;BME280;58428;49.478;10.986;2023-06-04T08:58:47;98602.25;;;21.14;65.71
70815;BME280;58428;49.478;10.986;2023-06-04T09:01:14;98597.53;;;21.21;66.41
70815;BME280;58428;49.478;10.986;2023-06-04T09:03:40;98600.31;;;21.28;66.29
70815;BME280;58428;49.478;10.986;2023-06-04T09:06:07;98602.69;;;21.33;66.64
70815;BME280;58428;49.478;10.986;2023-06-04T09:08:36;98603.91;;;21.46;64.51
70815;BME280;58428;49.478;10.986;2023-06-04T09:11:08;98601.56;;;21.55;62.20
70815;BME280;58428;49.478;10.986;2023-06-04T09:13:36;98607.06;;;21.62;61.81
70815;BME280;58428;49.478;10.986;2023-06-04T09:16:03;98601.97;;;21.71;64.17
70815;BME280;58428;49.478;10.986;2023-06-04T09:18:29;98598.81;;;21.76;61.29
70815;BME280;58428;49.478;10.986;2023-06-04T09:21:04;98610.63;;;21.73;59.14
70815;BME280;58428;49.478;10.986;2023-06-04T09:23:46;98602.34;;;21.73;59.07
70815;BME280;58428;49.478;10.986;2023-06-04T09:26:13;98609.81;;;21.82;57.79
70815;BME280;58428;49.478;10.986;2023-06-04T09:28:42;98605.09;;;21.90;58.36
70815;BME280;58428;49.478;10.986;2023-06-04T09:31:09;98596.81;;;22.07;59.77
70815;BME280;58428;49.478;10.986;2023-06-04T09:33:49;98595.66;;;22.18;54.70
70815;BME280;58428;49.478;10.986;2023-06-04T09:36:15;98604.69;;;22.22;55.12
70815;BME280;58428;49.478;10.986;2023-06-04T09:38:41;98597.59;;;22.21;55.16
70815;BME280;58428;49.478;10.986;2023-06-04T09:41:16;98598.75;;;22.38;54.62
70815;BME280;58428;49.478;10.986;2023-06-04T09:43:42;98601.88;;;22.47;54.64
70815;BME280;58428;49.478;10.986;2023-06-04T09:46:16;98593.19;;;22.55;50.94
70815;BME280;58428;49.478;10.986;2023-06-04T09:48:43;98594.75;;;22.63;52.81
70815;BME280;58428;49.478;10.986;2023-06-04T09:51:14;98588.84;;;22.61;49.95
70815;BME280;58428;49.478;10.986;2023-06-04T09:53:41;98595.56;;;22.50;47.53
70815;BME280;58428;49.478;10.986;2023-06-04T09:56:07;98590.47;;;22.45;51.57
70815;BME280;58428;49.478;10.986;2023-06-04T09:58:38;98588.47;;;22.49;48.62
70815;BME280;58428;49.478;10.986;2023-06-04T10:01:06;98590.88;;;22.40;50.56
70815;BME280;58428;49.478;10.986;2023-06-04T10:03:34;98585.28;;;22.60;51.32
70815;BME280;58428;49.478;10.986;2023-06-04T10:06:03;98591.16;;;22.76;47.58
70815;BME280;58428;49.478;10.986;2023-06-04T10:08:30;98596.63;;;22.83;46.59
70815;BME280;58428;49.478;10.986;2023-06-04T10:10:58;98591.91;;;22.87;46.86
70815;BME280;58428;49.478;10.986;2023-06-04T10:13:38;98583.97;;;22.96;45.45
70815;BME280;58428;49.478;10.986;2023-06-04T10:16:07;98592.69;;;22.84;46.25
70815;BME280;58428;49.478;10.986;2023-06-04T10:18:33;98582.38;;;22.98;48.03
70815;BME280;58428;49.478;10.986;2023-06-04T10:20:59;98580.38;;;23.02;45.04
70815;BME280;58428;49.478;10.986;2023-06-04T10:23:25;98585.81;;;23.20;47.88
70815;BME280;58428;49.478;10.986;2023-06-04T10:25:52;98578.28;;;23.27;45.39
70815;BME280;58428;49.478;10.986;2023-06-04T10:28:20;98572.63;;;23.44;45.18
70815;BME280;58428;49.478;10.986;2023-06-04T10:30:46;98568.19;;;23.57;46.52
70815;BME280;58428;49.478;10.986;2023-06-04T10:33:14;98572.09;;;23.63;45.99
70815;BME280;58428;49.478;10.986;2023-06-04T10:35:40;98574.91;;;23.56;44.74
70815;BME280;58428;49.478;10.986;2023-06-04T10:38:11;98563.06;;;23.56;46.06
70815;BME280;58428;49.478;10.986;2023-06-04T10:40:37;98574.03;;;23.69;45.76
70815;BME280;58428;49.478;10.986;2023-06-04T10:43:11;98558.53;;;23.28;41.41
70815;BME280;58428;49.478;10.986;2023-06-04T10:45:37;98567.59;;;23.29;43.35
70815;BME280;58428;49.478;10.986;2023-06-04T10:48:08;98564.84;;;23.32;43.31
70815;BME280;58428;49.478;10.986;2023-06-04T10:50:35;98571.38;;;23.52;43.80
70815;BME280;58428;49.478;10.986;2023-06-04T10:53:01;98569.78;;;23.51;41.96
70815;BME280;58428;49.478;10.986;2023-06-04T10:55:31;98568.19;;;23.61;41.86
70815;BME280;58428;49.478;10.986;2023-06-04T10:57:58;98566.25;;;23.51;40.84
70815;BME280;58428;49.478;10.986;2023-06-04T11:00:41;98557.94;;;23.54;40.69
70815;BME280;58428;49.478;10.986;2023-06-04T11:03:08;98557.75;;;23.78;42.92
70815;BME280;58428;49.478;10.986;2023-06-04T11:05:45;98557.25;;;23.90;42.13
70815;BME280;58428;49.478;10.986;2023-06-04T11:08:12;98556.00;;;23.98;42.40
70815;BME280;58428;49.478;10.986;2023-06-04T11:10:41;98553.13;;;24.08;40.84
70815;BME280;58428;49.478;10.986;2023-06-04T11:13:07;98548.69;;;24.18;41.30
70815;BME280;58428;49.478;10.986;2023-06-04T11:15:43;98553.78;;;24.19;40.49
70815;BME280;58428;49.478;10.986;2023-06-04T11:18:15;98554.63;;;24.16;40.90
70815;BME280;58428;49.478;10.986;2023-06-04T11:20:41;98557.47;;;24.09;39.07
70815;BME280;58428;49.478;10.986;2023-06-04T11:23:07;98556.13;;;23.84;40.70
70815;BME280;58428;49.478;10.986;2023-06-04T11:25:33;98555.75;;;23.82;39.89
70815;BME280;58428;49.478;10.986;2023-06-04T11:28:00;98546.84;;;23.65;40.56
70815;BME280;58428;49.478;10.986;2023-06-04T11:30:27;98545.81;;;23.88;41.08
70815;BME280;58428;49.478;10.986;2023-06-04T11:33:05;98550.81;;;24.03;39.49
70815;BME280;58428;49.478;10.986;2023-06-04T11:35:31;98549.44;;;24.25;40.58
70815;BME280;58428;49.478;10.986;2023-06-04T11:38:05;98537.84;;;24.37;40.27
70815;BME280;58428;49.478;10.986;2023-06-04T11:40:30;98542.00;;;24.52;40.16
70815;BME280;58428;49.478;10.986;2023-06-04T11:42:56;98539.13;;;24.62;40.34
70815;BME280;58428;49.478;10.986;2023-06-04T11:45:22;98536.81;;;24.57;39.05
70815;BME280;58428;49.478;10.986;2023-06-04T11:47:49;98535.63;;;24.58;38.27
70815;BME280;58428;49.478;10.986;2023-06-04T11:50:15;98530.34;;;24.34;37.42
70815;BME280;58428;49.478;10.986;2023-06-04T11:52:41;98536.16;;;24.10;36.95
70815;BME280;58428;49.478;10.986;2023-06-04T11:55:09;98531.25;;;24.24;38.45
70815;BME280;58428;49.478;10.986;2023-06-04T11:57:35;98529.47;;;24.40;38.39
70815;BME280;58428;49.478;10.986;2023-06-04T12:00:01;98530.16;;;24.51;38.23
70815;BME280;58428;49.478;10.986;2023-06-04T12:02:27;98525.31;;;24.59;36.38
70815;BME280;58428;49.478;10.986;2023-06-04T12:04:52;98526.56;;;24.54;35.67
70815;BME280;58428;49.478;10.986;2023-06-04T12:07:27;98526.75;;;24.70;36.60
70815;BME280;58428;49.478;10.986;2023-06-04T12:10:04;98520.63;;;24.85;37.60
70815;BME280;58428;49.478;10.986;2023-06-04T12:12:33;98520.91;;;24.91;36.72
70815;BME280;58428;49.478;10.986;2023-06-04T12:15:00;98518.88;;;24.98;35.93
70815;BME280;58428;49.478;10.986;2023-06-04T12:17:26;98527.22;;;24.95;35.02
70815;BME280;58428;49.478;10.986;2023-06-04T12:19:52;98523.59;;;25.01;36.45
70815;BME280;58428;49.478;10.986;2023-06-04T12:22:19;98524.28;;;25.09;35.40
70815;BME280;58428;49.478;10.986;2023-06-04T12:24:56;98521.22;;;25.00;33.89
70815;BME280;58428;49.478;10.986;2023-06-04T12:27:24;98516.22;;;24.91;34.79
70815;BME280;58428;49.478;10.986;2023-06-04T12:30:04;98524.25;;;24.79;34.57
70815;BME280;58428;49.478;10.986;2023-06-04T12:32:30;98526.81;;;24.96;34.57
70815;BME280;58428;49.478;10.986;2023-06-04T12:34:56;98519.31;;;24.64;33.68
70815;BME280;58428;49.478;10.986;2023-06-04T12:37:23;98517.38;;;24.61;34.40
70815;BME280;58428;49.478;10.986;2023-06-04T12:39:50;98507.28;;;24.77;34.69
70815;BME280;58428;49.478;10.986;2023-06-04T12:45:04;98502.78;;;25.16;34.20
70815;BME280;58428;49.478;10.986;2023-06-04T12:47:35;98517.53;;;25.10;32.94
70815;BME280;58428;49.478;10.986;2023-06-04T12:50:01;98504.94;;;25.05;33.55
70815;BME280;58428;49.478;10.986;2023-06-04T12:52:28;98508.41;;;25.13;33.58
70815;BME280;58428;49.478;10.986;2023-06-04T12:54:56;98508.22;;;25.23;34.33
70815;BME280;58428;49.478;10.986;2023-06-04T12:57:23;98506.44;;;25.36;34.00
70815;BME280;58428;49.478;10.986;2023-06-04T12:59:48;98498.13;;;25.36;33.25
70815;BME280;58428;49.478;10.986;2023-06-04T13:02:13;98497.59;;;25.44;34.10